Terminal Aerodrome Forecast
Issued by NWS

Current Version | Previous Version | Graphics & Text | Print | Product List | Glossary On
Versions: 1 2 3 4 5 6 7 8 9 10 11 12 13 14 15 16 17 18 19 20 21 22 23 24 25
682
FTUS41 KILN 201459 AAA
TAFLUK
TAF AMD
KLUK 201459Z 2015/2112 00000KT 1/4SM FG VV002
     FM201600 13004KT P6SM BKN030
     FM201700 14004KT P6SM BKN070
     FM210100 12005KT P6SM BKN250
     FM210900 18004KT P6SM BKN250=

USA.gov is the U.S. government's official web portal to all federal, state and local government web resources and services.